This is the latest recevied weather packets stored in our database for station/object DL9GJ-6. If no packets are shown the sender has not sent any weather packets the latest 1 day(s).
| Time | Temp. | Humidity | Pressure | Rain* | Wind** | Luminosity | Snow |
|---|---|---|---|---|---|---|---|
| 1777985782 | 16.67° C | 74% | 1006.9 hPa | 0.25 mm | 0.45 m/s, 248° | 298 W/m² | - |
| 1777985421 | 16.67° C | 73% | 1006.9 hPa | 0.25 mm | 1.34 m/s, 233° | 273 W/m² | - |
| 1777985409 | 16.67° C | 73% | 1006.9 hPa | 0.25 mm | 1.34 m/s, 233° | 273 W/m² | - |
| 1777985062 | 16.67° C | 75% | 1006.9 hPa | 0.25 mm | 0.89 m/s, 235° | 277 W/m² | - |
| 1777984701 | 16.67° C | 77% | 1006.9 hPa | 0.25 mm | 0.45 m/s, 202° | 272 W/m² | - |
| 1777984342 | 16.67° C | 79% | 1007 hPa | 0.25 mm | 0.89 m/s, 199° | 282 W/m² | - |
| 1777983981 | 16.67° C | 80% | 1007.1 hPa | 0.25 mm | 0.45 m/s, 222° | 300 W/m² | - |
| 1777983621 | 16.67° C | 78% | 1007 hPa | 0.25 mm | 0.89 m/s, 235° | 298 W/m² | - |
| 1777983261 | 17.22° C | 73% | 1007.1 hPa | 0 mm | 0.89 m/s, 247° | 136 W/m² | - |
| 1777982901 | 17.22° C | 70% | 1007.1 hPa | 0 mm | 1.79 m/s, 222° | 129 W/m² | - |
| 1777982540 | 17.78° C | 68% | 1007.1 hPa | 0 mm | 0.89 m/s, 217° | 162 W/m² | - |
| 1777982182 | 17.78° C | 68% | 1006.9 hPa | 0 mm | 0.89 m/s, 234° | 169 W/m² | - |
| 1777981822 | 17.78° C | 66% | 1006.9 hPa | 0 mm | 0.89 m/s, 239° | 175 W/m² | - |
| 1777981461 | 18.33° C | 69% | 1006.8 hPa | 0 mm | 0.89 m/s, 233° | 258 W/m² | - |
| 1777981102 | 18.33° C | 68% | 1006.8 hPa | 0 mm | 1.34 m/s, 284° | 330 W/m² | - |
| 1777980741 | 18.33° C | 69% | 1006.8 hPa | 0 mm | 1.79 m/s, 185° | 338 W/m² | - |
| 1777980381 | 17.78° C | 70% | 1006.7 hPa | 0 mm | 0 m/s | 289 W/m² | - |
| 1777980369 | 17.78° C | 70% | 1006.7 hPa | 0 mm | 0 m/s | 289 W/m² | - |
| 1777980021 | 17.78° C | 68% | 1006.6 hPa | 0 mm | 0.89 m/s, 270° | 245 W/m² | - |
| 1777979661 | 17.22° C | 67% | 1006.5 hPa | 0 mm | 0 m/s | 212 W/m² | - |
| 1777979651 | 17.22° C | 67% | 1006.5 hPa | 0 mm | 0 m/s | 212 W/m² | - |
| 1777979301 | 17.22° C | 67% | 1006.3 hPa | 0 mm | 0.89 m/s, 255° | 186 W/m² | - |
| 1777979289 | 17.22° C | 67% | 1006.3 hPa | 0 mm | 0.89 m/s, 255° | 186 W/m² | - |
| 1777978942 | 17.78° C | 66% | 1006.4 hPa | 0 mm | 0.45 m/s, 274° | 178 W/m² | - |
| 1777978928 | 17.78° C | 66% | 1006.4 hPa | 0 mm | 0.45 m/s, 274° | 178 W/m² | - |
* Rain latest hour (hover to see other rain measurements)
** Current wind speed in m/s (hover to see current wind gust speed)